createdAt,value
2023-05-02T04:06:01.900Z,8.05
2023-05-02T04:09:04.401Z,8.07
2023-05-02T04:12:07.201Z,8.11
2023-05-02T04:15:10.854Z,8.25
2023-05-02T04:18:13.419Z,8.45
2023-05-02T04:21:17.288Z,8.65
2023-05-02T04:24:19.969Z,9.00
2023-05-02T04:27:22.511Z,9.56
2023-05-02T04:30:25.074Z,9.63
2023-05-02T04:33:27.616Z,9.78
2023-05-02T04:36:31.484Z,10.02
2023-05-02T04:39:34.126Z,10.38
2023-05-02T04:42:36.656Z,10.78
2023-05-02T04:45:39.187Z,10.81
2023-05-02T04:48:42.275Z,9.63
2023-05-02T04:51:46.628Z,9.10
2023-05-02T04:54:49.112Z,9.01
2023-05-02T04:57:52.273Z,9.37
2023-05-02T05:00:55.717Z,9.63
2023-05-02T05:03:58.443Z,9.54
2023-05-02T05:07:02.379Z,10.19
2023-05-02T05:10:05.276Z,11.67
2023-05-02T05:13:07.930Z,12.62
2023-05-02T05:16:10.508Z,13.40
2023-05-02T05:19:13.019Z,13.84
2023-05-02T05:22:16.979Z,13.98
2023-05-02T05:25:19.629Z,13.30
2023-05-02T05:28:22.144Z,12.40
2023-05-02T05:31:25.315Z,11.62
2023-05-02T05:34:27.888Z,11.23
2023-05-02T05:37:31.719Z,11.16
2023-05-02T05:40:34.280Z,11.11
2023-05-02T05:43:38.131Z,11.39
2023-05-02T05:46:41.156Z,11.57
2023-05-02T05:49:43.876Z,11.58
2023-05-02T05:52:47.691Z,11.60
2023-05-02T05:55:50.289Z,11.22
2023-05-02T05:58:52.849Z,11.42
2023-05-02T06:01:55.419Z,11.39
2023-05-02T06:04:57.956Z,11.05
2023-05-02T06:08:01.871Z,11.16
2023-05-02T06:11:05.413Z,11.26
2023-05-02T06:14:07.935Z,11.53
2023-05-02T06:17:10.438Z,11.80
2023-05-02T06:20:13.347Z,11.62
2023-05-02T06:23:17.162Z,11.72
2023-05-02T06:26:19.854Z,11.54
2023-05-02T06:29:22.320Z,11.95
2023-05-02T06:32:24.805Z,12.44
2023-05-02T06:35:27.403Z,12.61
2023-05-02T06:38:31.244Z,12.45
2023-05-02T06:41:33.812Z,12.65
2023-05-02T06:44:36.926Z,12.64
2023-05-02T06:47:39.471Z,12.99
2023-05-02T06:50:42.232Z,13.34
2023-05-02T06:53:46.186Z,13.54
2023-05-02T06:56:48.802Z,13.26
2023-05-02T06:59:51.424Z,12.83
2023-05-02T07:02:53.944Z,12.82
2023-05-02T07:05:56.620Z,12.66
2023-05-02T07:09:00.548Z,12.64
2023-05-02T07:12:06.015Z,12.01
2023-05-02T07:15:10.292Z,11.98
2023-05-02T07:18:12.833Z,12.04
2023-05-02T07:21:15.397Z,12.09
2023-05-02T07:24:19.329Z,12.24
2023-05-02T07:27:21.818Z,12.36
2023-05-02T07:30:24.854Z,12.33
2023-05-02T07:33:27.498Z,12.13
2023-05-02T07:36:30.066Z,12.18
2023-05-02T07:39:34.369Z,11.88
2023-05-02T07:42:37.188Z,11.95
2023-05-02T07:45:39.697Z,12.20
2023-05-02T07:48:42.826Z,12.50
2023-05-02T07:51:45.758Z,12.41
2023-05-02T07:54:50.475Z,12.18
2023-05-02T07:57:53.028Z,12.34
2023-05-02T08:00:55.595Z,12.28
2023-05-02T08:03:58.312Z,12.14
2023-05-02T08:07:01.132Z,12.20
2023-05-02T08:10:05.457Z,12.67
2023-05-02T08:13:07.935Z,12.87
2023-05-02T08:16:10.497Z,12.83
2023-05-02T08:19:13.114Z,12.61
2023-05-02T08:22:15.662Z,12.47
2023-05-02T08:25:19.547Z,12.18
2023-05-02T08:28:22.054Z,12.12
2023-05-02T08:31:24.601Z,13.11
2023-05-02T08:34:27.248Z,15.34
2023-05-02T08:37:29.853Z,15.43
2023-05-02T08:40:42.015Z,14.14
2023-05-02T08:43:46.386Z,13.33
2023-05-02T08:46:51.886Z,12.61
2023-05-02T08:49:56.317Z,12.54
2023-05-02T08:53:00.196Z,12.47
2023-05-02T08:56:04.657Z,12.42
2023-05-02T08:59:08.185Z,12.47
2023-05-02T09:02:17.443Z,12.39
2023-05-02T09:05:21.473Z,12.09
2023-05-02T09:08:24.995Z,11.96
2023-05-02T09:11:29.940Z,11.82
2023-05-02T09:14:32.804Z,11.75
2023-05-02T09:17:41.253Z,11.69
2023-05-02T09:20:44.093Z,11.71
2023-05-02T09:23:47.894Z,11.40
2023-05-02T09:27:02.958Z,11.26
2023-05-02T09:30:20.692Z,10.96
2023-05-02T09:33:27.921Z,10.97
2023-05-02T09:36:40.862Z,10.92
2023-05-02T09:40:06.533Z,11.06
2023-05-02T09:43:17.168Z,11.15
2023-05-02T09:46:19.775Z,11.43
2023-05-02T09:49:41.096Z,11.37
2023-05-02T09:53:02.408Z,11.75
2023-05-02T09:56:06.275Z,11.69
2023-05-02T09:59:17.638Z,11.55
2023-05-02T10:02:21.652Z,10.75
2023-05-02T10:05:24.299Z,10.54
2023-05-02T10:08:28.457Z,10.53
2023-05-02T10:11:32.485Z,10.51
2023-05-02T10:14:42.242Z,10.45
2023-05-02T10:17:50.599Z,10.54
2023-05-02T10:20:58.538Z,10.63
2023-05-02T10:24:03.447Z,10.77
2023-05-02T10:27:06.711Z,10.97
2023-05-02T10:30:13.905Z,10.99
2023-05-02T10:33:18.975Z,10.66
2023-05-02T10:36:23.676Z,10.51
2023-05-02T10:39:26.206Z,10.34
2023-05-02T10:42:29.865Z,10.54
2023-05-02T10:45:34.992Z,10.90
2023-05-02T10:48:38.652Z,10.96
2023-05-02T10:51:43.411Z,10.93
2023-05-02T10:54:46.200Z,10.64
2023-05-02T10:58:32.647Z,10.86
2023-05-02T11:01:38.045Z,11.01
2023-05-02T11:05:00.102Z,11.03
2023-05-02T11:08:32.955Z,10.91
2023-05-02T11:11:42.777Z,10.56
2023-05-02T11:14:48.445Z,10.59
2023-05-02T11:18:02.455Z,10.76
2023-05-02T11:21:27.488Z,10.72
2023-05-02T11:24:40.606Z,10.46
2023-05-02T11:27:44.597Z,10.19
2023-05-02T11:30:48.660Z,10.65
2023-05-02T11:33:57.946Z,10.74
2023-05-02T11:37:00.468Z,10.50
2023-05-02T11:40:14.707Z,10.80
2023-05-02T11:43:19.524Z,10.95
2023-05-02T11:46:23.148Z,10.82
2023-05-02T11:49:27.411Z,10.82
2023-05-02T11:52:30.757Z,10.99
2023-05-02T11:55:33.437Z,10.70
2023-05-02T11:58:36.022Z,10.89
2023-05-02T12:01:38.510Z,11.36
2023-05-02T12:04:45.775Z,11.25
2023-05-02T12:07:49.231Z,10.87
2023-05-02T12:10:53.466Z,10.98
2023-05-02T12:13:56.043Z,10.92
2023-05-02T12:16:59.976Z,11.32
2023-05-02T12:20:05.261Z,11.51
2023-05-02T12:23:09.978Z,11.62
2023-05-02T12:26:19.380Z,11.36
2023-05-02T12:29:21.893Z,10.68
2023-05-02T12:32:31.740Z,11.12
2023-05-02T12:35:36.595Z,11.38
2023-05-02T12:38:39.534Z,11.88
2023-05-02T12:41:43.748Z,11.53
2023-05-02T12:44:48.807Z,11.30
2023-05-02T12:47:51.325Z,11.31
2023-05-02T12:50:56.047Z,11.25
2023-05-02T12:53:58.568Z,11.91
2023-05-02T12:57:02.946Z,12.01
2023-05-02T13:00:06.858Z,11.08
2023-05-02T13:03:11.018Z,11.24
2023-05-02T13:06:15.028Z,11.52
2023-05-02T13:09:18.703Z,11.50
2023-05-02T13:12:21.409Z,12.25
2023-05-02T13:15:24.028Z,12.59
2023-05-02T13:18:28.038Z,12.55
2023-05-02T13:21:32.504Z,12.21
2023-05-02T13:24:34.999Z,11.70
2023-05-02T13:27:37.510Z,11.21
2023-05-02T13:30:40.152Z,10.74
2023-05-02T13:33:42.698Z,10.64
2023-05-02T13:36:46.785Z,10.70
2023-05-02T13:39:49.342Z,10.62
2023-05-02T13:42:51.901Z,10.13
2023-05-02T13:45:54.463Z,10.12
2023-05-02T13:48:57.016Z,10.40
2023-05-02T13:52:00.817Z,10.35
2023-05-02T13:55:03.338Z,10.52
2023-05-02T13:58:05.908Z,10.22
2023-05-02T14:01:08.807Z,10.34
2023-05-02T14:04:11.583Z,10.32
2023-05-02T14:07:15.557Z,10.75
2023-05-02T14:10:18.199Z,10.78
2023-05-02T14:13:20.831Z,10.47
2023-05-02T14:16:23.471Z,10.15
2023-05-02T14:19:26.068Z,10.40
2023-05-02T14:22:29.967Z,10.48
2023-05-02T14:25:32.485Z,10.46
2023-05-02T14:28:35.222Z,10.88
2023-05-02T14:31:37.745Z,11.25
2023-05-02T14:34:40.256Z,11.09
2023-05-02T14:37:45.584Z,11.01
2023-05-02T14:40:48.156Z,10.80
2023-05-02T14:43:52.625Z,11.10
2023-05-02T14:46:56.185Z,11.10
2023-05-02T14:49:58.975Z,11.17
2023-05-02T14:53:02.832Z,10.95
2023-05-02T14:56:06.030Z,10.73
2023-05-02T14:59:08.557Z,11.03
2023-05-02T15:02:11.172Z,11.04
2023-05-02T15:05:13.781Z,10.87
2023-05-02T15:08:17.746Z,10.44
2023-05-02T15:11:20.219Z,10.74
2023-05-02T15:14:22.872Z,11.03
2023-05-02T15:17:25.955Z,11.07
2023-05-02T15:20:28.535Z,12.02
2023-05-02T15:23:32.522Z,12.52
2023-05-02T15:26:35.817Z,12.95
2023-05-02T15:29:38.351Z,11.81
2023-05-02T15:32:40.863Z,11.56
2023-05-02T15:35:53.811Z,11.72
2023-05-02T15:38:57.698Z,11.45
2023-05-02T15:42:03.725Z,11.29
2023-05-02T15:45:07.342Z,11.50
2023-05-02T15:48:09.871Z,11.43
2023-05-02T15:51:13.623Z,11.33
2023-05-02T15:54:17.907Z,11.39
2023-05-02T15:57:21.239Z,11.56
2023-05-02T16:00:23.980Z,11.66
2023-05-02T16:03:26.519Z,12.41
2023-05-02T16:06:29.124Z,12.98
2023-05-02T16:09:33.074Z,13.19
2023-05-02T16:12:35.575Z,12.82
2023-05-02T16:15:38.385Z,12.94
2023-05-02T16:18:40.902Z,11.83
2023-05-02T16:21:43.528Z,11.88
2023-05-02T16:24:47.372Z,12.18
2023-05-02T16:27:50.073Z,11.70
2023-05-02T16:30:52.794Z,11.51
2023-05-02T16:33:55.330Z,11.09
2023-05-02T16:36:57.815Z,10.82
2023-05-02T16:40:02.377Z,10.47
2023-05-02T16:43:06.484Z,10.71
2023-05-02T16:46:09.016Z,11.11
2023-05-02T16:49:11.610Z,10.96
2023-05-02T16:52:14.128Z,10.62
2023-05-02T16:55:18.315Z,10.59
2023-05-02T16:58:21.672Z,10.53
2023-05-02T17:01:27.207Z,10.50
2023-05-02T17:04:29.731Z,10.52
2023-05-02T17:07:32.435Z,10.61
2023-05-02T17:10:36.330Z,10.85
2023-05-02T17:13:39.120Z,11.23
2023-05-02T17:16:41.865Z,11.38
2023-05-02T17:19:44.439Z,11.31
2023-05-02T17:22:47.084Z,11.18
2023-05-02T17:25:51.920Z,11.38
2023-05-02T17:28:54.473Z,11.37
2023-05-02T17:31:57.334Z,11.41
2023-05-02T17:34:59.851Z,11.46
2023-05-02T17:38:02.370Z,11.29
2023-05-02T17:41:06.310Z,11.04
2023-05-02T17:44:08.810Z,10.77
2023-05-02T17:47:11.333Z,10.51
2023-05-02T17:50:14.192Z,10.66
2023-05-02T17:53:16.795Z,10.55
2023-05-02T17:56:21.021Z,10.36
2023-05-02T17:59:23.577Z,10.17
2023-05-02T18:02:26.892Z,9.97
2023-05-02T18:05:29.728Z,9.75
2023-05-02T18:08:32.338Z,9.54
2023-05-02T18:11:36.425Z,9.38
2023-05-02T18:14:38.938Z,9.44
2023-05-02T18:17:41.563Z,9.30
2023-05-02T18:20:44.077Z,9.23
2023-05-02T18:23:47.079Z,9.21
2023-05-02T18:26:50.955Z,9.21
2023-05-02T18:29:54.432Z,9.20
2023-05-02T18:32:56.966Z,9.17
2023-05-02T18:36:00.305Z,9.15
2023-05-02T18:39:02.864Z,9.07
2023-05-02T18:42:08.246Z,9.00
2023-05-02T18:45:11.148Z,8.85
2023-05-02T18:48:13.720Z,8.84
2023-05-02T18:51:16.274Z,8.81
2023-05-02T18:54:19.530Z,8.90
2023-05-02T18:57:23.490Z,8.98
2023-05-02T19:00:30.113Z,8.98
2023-05-02T19:03:32.812Z,8.97
2023-05-02T19:06:35.427Z,8.93
2023-05-02T19:09:37.959Z,8.71
2023-05-02T19:12:42.596Z,8.57
2023-05-02T19:15:46.445Z,8.47
2023-05-02T19:18:52.378Z,8.51
2023-05-02T19:21:54.929Z,8.56
2023-05-02T19:24:57.581Z,8.69
2023-05-02T19:57:31.896Z,8.80
2023-05-02T20:00:34.399Z,8.77
2023-05-02T20:03:37.225Z,8.73
